»·PEaware :: N221M KBUR-KSBD

N221M :: KBUR-KSBD

FLIGHT INFORMATION

Flight Status: Arrived
Operator: Privately registered:
United States
More flights under this callsign
Pilot: Gopalakrishna S. (22834)
Aircraft: Unknown
(EPIC)
More flights by this aircraft type
Origin: KBUR Bob Hope-Burbank
United States
Destination: KSBD San Bernardino Intl
United States
More flights between these airports :: More routes between these airports
Route: +ELMOO9 ELMOO V186 ITSME V264 POM V197 PDZ
File this flight plan on PilotEdge
Remarks: TEC route BURP9
Altitude:
(Current/Filed)
7,000ft
Speed:
(Current/Filed)
220kts
Departed: 15-May-20 07:39 PM
Arrived: 15-May-20 08:01 PM
Distance/Time
Traveled:
56nm/0:22
Distance/Time
To Go:
Arrived

Flight Plot

Page will automatically refresh every two minutes.

Flight plan parsing failed; only flown route is shown


Map Options




Map Legend


Flown Route
Filed Route
Departure Airport
Arrival Airport
Navaid (VOR, NDB)
Fix

Horizontal Profiles

Position Reports

Time Latitude Longitude Heading Altitude Ground
Speed
15-May-20 19:10 34.196337 -118.367565 358 721ft 0kts
15-May-20 19:11 34.196337 -118.367565 358 721ft 0kts
15-May-20 19:12 34.196337 -118.367565 358 721ft 0kts
15-May-20 19:13 34.196337 -118.367565 358 721ft 0kts
15-May-20 19:14 34.196337 -118.367565 358 721ft 0kts
15-May-20 19:15 34.196337 -118.367565 358 721ft 0kts
15-May-20 19:16 34.196337 -118.367565 358 721ft 0kts
15-May-20 19:17 34.196337 -118.367565 358 721ft 0kts
15-May-20 19:18 34.196337 -118.367565 358 721ft 0kts
15-May-20 19:19 34.196337 -118.367565 358 721ft 0kts
15-May-20 19:20 34.196337 -118.367565 358 721ft 0kts
15-May-20 19:21 34.196337 -118.367565 358 721ft 0kts
15-May-20 19:22 34.196337 -118.367565 358 721ft 0kts
15-May-20 19:23 34.196337 -118.367565 358 721ft 0kts
15-May-20 19:24 34.196337 -118.367565 358 721ft 0kts
15-May-20 19:25 34.196337 -118.367565 358 721ft 0kts
15-May-20 19:26 34.196337 -118.367565 358 721ft 0kts
15-May-20 19:27 34.196338 -118.367565 358 721ft 0kts
15-May-20 19:29 34.196338 -118.367565 358 721ft 0kts
15-May-20 19:30 34.196338 -118.367565 358 721ft 0kts
15-May-20 19:31 34.196338 -118.367565 358 721ft 0kts
15-May-20 19:32 34.196338 -118.367565 358 721ft 0kts
15-May-20 19:33 34.196338 -118.367565 358 721ft 0kts
15-May-20 19:34 34.196338 -118.367565 358 721ft 0kts
15-May-20 19:35 34.196506 -118.367024 85 721ft 12kts
15-May-20 19:36 34.197262 -118.369041 341 724ft 0kts
15-May-20 19:37 34.197262 -118.369041 341 724ft 0kts
15-May-20 19:38 34.197899 -118.368125 89 724ft 0kts
15-May-20 19:39 34.197821 -118.363509 90 721ft 104kts
15-May-20 19:40 34.178321 -118.324084 134 2705ft 175kts
15-May-20 19:41 34.154596 -118.268595 110 4687ft 188kts
15-May-20 19:42 34.137563 -118.211639 109 6933ft 175kts
15-May-20 19:42 34.121216 -118.157079 109 7066ft 223kts
15-May-20 19:44 34.097856 -118.079081 110 7062ft 207kts
15-May-20 19:45 34.078054 -118.014543 110 7063ft 202kts
15-May-20 19:45 34.075953 -117.958519 89 7063ft 200kts
15-May-20 19:46 34.076855 -117.892259 88 7063ft 200kts
15-May-20 19:48 34.079101 -117.814689 87 7063ft 199kts
15-May-20 19:48 34.072223 -117.758994 101 6257ft 204kts
15-May-20 19:49 34.061475 -117.694035 101 4253ft 193kts
15-May-20 19:51 34.055651 -117.626408 81 5157ft 181kts
15-May-20 19:51 34.062196 -117.573537 81 5065ft 194kts
15-May-20 19:52 34.070127 -117.509549 81 5064ft 195kts
15-May-20 19:53 34.078039 -117.445947 80 4842ft 170kts
15-May-20 19:54 34.084307 -117.391190 93 3104ft 166kts
15-May-20 19:55 34.075333 -117.340952 105 2464ft 142kts
15-May-20 19:56 34.063067 -117.298821 86 2674ft 128kts
15-May-20 19:57 34.071732 -117.256355 68 2152ft 133kts
15-May-20 19:58 34.081824 -117.215448 74 2237ft 123kts
15-May-20 19:59 34.101870 -117.196018 301 1878ft 130kts
15-May-20 20:00 34.097535 -117.227262 251 1137ft 26kts
15-May-20 20:01 34.095937 -117.236096 325 1113ft 0kts
15-May-20 20:02 34.095937 -117.236096 325 1113ft 0kts
15-May-20 20:03 34.095939 -117.238871 249 1108ft 29kts
15-May-20 20:04 34.096380 -117.242381 267 1098ft 0kts

Navigation Log

Ident Type
Flight plan parsing failed, navigation log unavailable